createdAt,value
2022-08-09T00:00:48.713Z,16.43
2022-08-09T00:01:54.955Z,16.42
2022-08-09T00:02:49.567Z,16.39
2022-08-09T00:04:05.534Z,16.35
2022-08-09T00:05:03.083Z,16.33
2022-08-09T00:06:19.301Z,16.30
2022-08-09T00:06:48.651Z,16.30
2022-08-09T00:07:47.623Z,16.27
2022-08-09T00:08:47.679Z,16.23
2022-08-09T00:09:47.604Z,16.23
2022-08-09T00:10:47.602Z,16.17
2022-08-09T00:12:03.362Z,16.14
2022-08-09T00:12:52.376Z,16.12
2022-08-09T00:13:47.572Z,16.11
2022-08-09T00:14:47.574Z,16.09
2022-08-09T00:15:58.895Z,16.05
2022-08-09T00:16:48.526Z,16.02
2022-08-09T00:18:10.794Z,16.00
2022-08-09T00:18:48.517Z,15.97
2022-08-09T00:19:47.992Z,15.96
2022-08-09T00:20:49.876Z,15.96
2022-08-09T00:21:55.996Z,15.94
2022-08-09T00:22:48.468Z,15.94
2022-08-09T00:23:55.606Z,15.93
2022-08-09T00:24:48.446Z,15.90
2022-08-09T00:25:51.799Z,15.90
2022-08-09T00:26:47.439Z,15.87
2022-08-09T00:27:48.072Z,15.86
2022-08-09T00:28:52.687Z,15.89
2022-08-09T00:30:16.782Z,15.87
2022-08-09T00:30:48.370Z,15.86
2022-08-09T00:31:58.578Z,15.86
2022-08-09T00:32:48.351Z,15.86
2022-08-09T00:33:49.140Z,15.84
2022-08-09T00:34:52.190Z,15.86
2022-08-09T00:35:48.333Z,15.84
2022-08-09T00:36:47.320Z,15.86
2022-08-09T00:37:47.310Z,15.84
2022-08-09T00:38:51.202Z,15.84
2022-08-09T00:40:09.338Z,15.84
2022-08-09T00:40:52.697Z,15.83
2022-08-09T00:44:11.608Z,15.74
2022-08-09T00:44:15.861Z,15.80
2022-08-09T00:44:16.636Z,15.76
2022-08-09T00:44:48.236Z,15.67
2022-08-09T00:45:53.736Z,15.62
2022-08-09T00:46:57.320Z,15.57
2022-08-09T00:47:48.195Z,15.57
2022-08-09T00:48:47.574Z,15.62
2022-08-09T00:49:54.518Z,15.65
2022-08-09T00:50:52.214Z,15.68
2022-08-09T00:51:55.858Z,15.68
2022-08-09T00:52:48.137Z,15.69
2022-08-09T00:53:47.136Z,15.68
2022-08-09T00:54:47.136Z,15.69
2022-08-09T00:56:04.808Z,15.68
2022-08-09T00:56:48.100Z,15.67
2022-08-09T00:57:49.803Z,15.64
2022-08-09T00:58:49.135Z,15.62
2022-08-09T00:59:52.709Z,15.60
2022-08-09T01:00:48.101Z,15.57
2022-08-09T01:01:47.136Z,15.60
2022-08-09T01:02:47.039Z,15.56
2022-08-09T01:03:47.039Z,15.57
2022-08-09T01:04:47.012Z,15.62
2022-08-09T01:05:53.803Z,15.72
2022-08-09T01:06:54.723Z,15.83
2022-08-09T01:08:00.613Z,15.90
2022-08-09T01:08:49.360Z,15.96
2022-08-09T01:09:47.537Z,15.97
2022-08-09T01:10:46.943Z,15.97
2022-08-09T01:11:53.352Z,16.00
2022-08-09T01:12:47.924Z,16.02
2022-08-09T01:13:59.510Z,16.08
2022-08-09T01:14:48.072Z,16.12
2022-08-09T01:15:52.487Z,16.15
2022-08-09T01:16:49.232Z,16.23
2022-08-09T01:17:46.883Z,16.27
2022-08-09T01:18:47.683Z,16.31
2022-08-09T01:19:57.007Z,16.38
2022-08-09T01:20:47.846Z,16.41
2022-08-09T01:21:51.303Z,16.45
2022-08-09T01:22:48.279Z,16.48
2022-08-09T01:24:01.165Z,16.46
2022-08-09T01:24:50.416Z,16.43
2022-08-09T01:25:51.169Z,16.41
2022-08-09T01:26:53.630Z,16.34
2022-08-09T01:27:47.778Z,16.33
2022-08-09T01:28:46.756Z,16.28
2022-08-09T01:29:55.058Z,16.27
2022-08-09T01:30:52.458Z,16.27
2022-08-09T01:32:30.335Z,16.24
2022-08-09T01:32:47.779Z,16.23
2022-08-09T01:33:46.701Z,16.20
2022-08-09T01:34:46.691Z,16.15
2022-08-09T01:35:46.683Z,16.12
2022-08-09T01:36:47.674Z,16.09
2022-08-09T01:38:08.311Z,16.09
2022-08-09T01:38:47.752Z,16.07
2022-08-09T01:39:46.722Z,16.05
2022-08-09T01:40:52.501Z,16.05
2022-08-09T01:41:55.620Z,16.01
2022-08-09T01:42:47.602Z,16.00
2022-08-09T01:43:52.021Z,16.02
2022-08-09T01:44:47.584Z,16.07
2022-08-09T01:45:47.806Z,16.09
2022-08-09T01:46:47.081Z,16.14
2022-08-09T01:47:46.554Z,16.21
2022-08-09T01:48:46.535Z,16.24
2022-08-09T01:49:46.539Z,16.25
2022-08-09T01:50:48.375Z,16.24
2022-08-09T01:51:53.521Z,16.25
2022-08-09T01:52:47.496Z,16.23
2022-08-09T01:53:46.487Z,16.20
2022-08-09T01:54:46.468Z,16.15
2022-08-09T01:55:46.570Z,16.08
2022-08-09T01:56:47.099Z,16.07
2022-08-09T01:57:52.903Z,16.05
2022-08-09T01:58:49.124Z,16.00
2022-08-09T01:59:52.032Z,15.96
2022-08-09T02:00:50.577Z,15.93
2022-08-09T02:01:58.628Z,15.90
2022-08-09T02:02:47.387Z,15.87
2022-08-09T02:03:46.390Z,15.86
2022-08-09T02:04:46.361Z,15.84
2022-08-09T02:06:04.254Z,15.83
2022-08-09T02:06:58.386Z,15.78
2022-08-09T02:08:39.948Z,15.74
2022-08-09T02:08:58.847Z,15.71
2022-08-09T02:09:47.334Z,15.68
2022-08-09T02:10:51.032Z,15.74
2022-08-09T02:11:46.309Z,15.78
2022-08-09T02:12:46.282Z,15.83
2022-08-09T02:14:06.450Z,15.84
2022-08-09T02:14:47.265Z,15.86
2022-08-09T02:15:49.184Z,15.87
2022-08-09T02:16:53.243Z,15.89
2022-08-09T02:18:01.113Z,15.84
2022-08-09T02:18:47.926Z,15.84
2022-08-09T02:19:47.026Z,15.80
2022-08-09T02:20:46.206Z,15.78
2022-08-09T02:21:46.197Z,15.75
2022-08-09T02:22:46.569Z,15.75
2022-08-09T02:23:46.978Z,15.76
2022-08-09T02:24:51.964Z,15.74
2022-08-09T02:25:49.711Z,15.71
2022-08-09T02:26:47.138Z,15.71
2022-08-09T02:27:57.622Z,15.68
2022-08-09T02:28:47.120Z,15.67
2022-08-09T02:29:46.104Z,15.67
2022-08-09T02:30:46.441Z,15.65
2022-08-09T02:31:46.078Z,15.65
2022-08-09T02:32:46.115Z,15.64
2022-08-09T02:34:07.580Z,15.60
2022-08-09T02:34:52.030Z,15.59
2022-08-09T02:36:03.247Z,15.59
2022-08-09T02:36:47.494Z,15.57
2022-08-09T02:37:47.572Z,15.59
2022-08-09T02:38:47.840Z,15.59
2022-08-09T02:39:50.016Z,15.57
2022-08-09T02:40:47.024Z,15.53
2022-08-09T02:41:45.982Z,15.49
2022-08-09T02:42:45.954Z,15.46
2022-08-09T02:43:54.480Z,15.44
2022-08-09T02:44:46.941Z,15.43
2022-08-09T02:45:45.952Z,15.41
2022-08-09T02:46:45.921Z,15.41
2022-08-09T02:47:58.823Z,15.36
2022-08-09T02:48:46.892Z,15.34
2022-08-09T02:49:45.886Z,15.31
2022-08-09T02:50:46.884Z,15.29
2022-08-09T02:51:46.195Z,15.28
2022-08-09T02:52:45.845Z,15.25
2022-08-09T02:53:52.810Z,15.25
2022-08-09T02:54:54.480Z,15.21
2022-08-09T02:55:58.265Z,15.20
2022-08-09T02:56:51.058Z,15.20
2022-08-09T02:58:00.320Z,15.16
2022-08-09T02:58:46.780Z,15.17
2022-08-09T03:00:20.911Z,15.14
2022-08-09T03:00:57.614Z,15.14
2022-08-09T03:02:05.899Z,15.11
2022-08-09T03:03:00.104Z,15.09
2022-08-09T03:04:17.315Z,15.07
2022-08-09T03:04:46.721Z,15.06
2022-08-09T03:05:45.710Z,15.06
2022-08-09T03:06:45.700Z,15.03
2022-08-09T03:07:55.015Z,15.01
2022-08-09T03:08:47.498Z,14.99
2022-08-09T03:09:54.164Z,14.98
2022-08-09T03:10:46.661Z,14.95
2022-08-09T03:12:08.466Z,14.94
2022-08-09T03:12:49.456Z,14.89
2022-08-09T03:14:01.297Z,14.89
2022-08-09T03:14:46.622Z,14.89
2022-08-09T03:16:06.208Z,14.91
2022-08-09T03:16:48.283Z,14.88
2022-08-09T03:17:45.593Z,14.88
2022-08-09T03:18:46.574Z,14.89
2022-08-09T03:19:58.093Z,14.91
2022-08-09T03:20:46.545Z,14.95
2022-08-09T03:21:50.749Z,14.95
2022-08-09T03:22:46.829Z,14.98
2022-08-09T03:24:01.599Z,15.03
2022-08-09T03:24:52.173Z,15.07
2022-08-09T03:25:58.981Z,15.09
2022-08-09T03:26:47.180Z,15.11
2022-08-09T03:27:45.949Z,15.13
2022-08-09T03:28:45.458Z,15.13
2022-08-09T03:30:00.687Z,15.13
2022-08-09T03:30:49.076Z,15.07
2022-08-09T03:31:59.679Z,15.02
2022-08-09T03:32:46.437Z,15.02
2022-08-09T03:33:53.247Z,15.01
2022-08-09T03:34:48.206Z,15.01
2022-08-09T03:36:13.260Z,15.01
2022-08-09T03:36:58.217Z,15.03
2022-08-09T03:37:55.270Z,15.10
2022-08-09T03:38:46.361Z,15.16
2022-08-09T03:39:48.554Z,15.17
2022-08-09T03:40:46.340Z,15.20
2022-08-09T03:41:48.658Z,15.21
2022-08-09T03:42:45.312Z,15.20
2022-08-09T03:44:03.535Z,15.19
2022-08-09T03:44:46.317Z,15.14
2022-08-09T03:46:05.422Z,15.11
2022-08-09T03:46:46.468Z,15.09
2022-08-09T03:47:46.724Z,15.03
2022-08-09T03:48:51.679Z,15.01
2022-08-09T03:49:58.300Z,14.96
2022-08-09T03:50:46.229Z,14.94
2022-08-09T03:51:58.601Z,14.89
2022-08-09T03:52:46.204Z,14.84
2022-08-09T03:53:45.196Z,14.81
2022-08-09T03:54:45.187Z,14.80
2022-08-09T03:55:45.185Z,14.78
2022-08-09T03:56:46.500Z,14.75
2022-08-09T03:58:03.463Z,14.70
2022-08-09T03:58:46.149Z,14.68
2022-08-09T03:59:52.983Z,14.64
2022-08-09T04:00:46.148Z,14.61
2022-08-09T04:01:45.693Z,14.60
2022-08-09T04:02:45.174Z,14.61
2022-08-09T04:04:01.415Z,14.60
2022-08-09T04:04:46.357Z,14.58
2022-08-09T04:05:45.095Z,14.58
2022-08-09T04:06:49.332Z,14.60
2022-08-09T04:07:53.214Z,14.61
2022-08-09T04:08:46.548Z,14.62
2022-08-09T04:09:48.991Z,14.64
2022-08-09T04:10:48.033Z,14.64
2022-08-09T04:11:45.001Z,14.64
2022-08-09T04:12:45.341Z,14.68
2022-08-09T04:14:52.914Z,14.68
2022-08-09T04:15:01.180Z,14.69
2022-08-09T04:16:17.751Z,14.68
2022-08-09T04:16:45.943Z,14.68
2022-08-09T04:17:44.941Z,14.72
2022-08-09T04:18:45.902Z,14.72
2022-08-09T04:19:51.582Z,14.72
2022-08-09T04:20:45.906Z,14.69
2022-08-09T04:21:45.033Z,14.68
2022-08-09T04:22:44.883Z,14.65
2022-08-09T04:23:53.870Z,14.62
2022-08-09T04:24:45.854Z,14.64
2022-08-09T04:25:44.854Z,14.65
2022-08-09T04:26:45.844Z,14.69
2022-08-09T04:27:48.904Z,14.70
2022-08-09T04:28:46.925Z,14.73
2022-08-09T04:29:50.011Z,14.78
2022-08-09T04:30:46.017Z,14.78
2022-08-09T04:31:47.392Z,14.80
2022-08-09T04:32:46.692Z,14.83
2022-08-09T04:33:53.082Z,14.81
2022-08-09T04:34:47.800Z,14.83
2022-08-09T04:35:45.749Z,14.83
2022-08-09T04:36:50.399Z,14.84
2022-08-09T04:37:46.734Z,14.84
2022-08-09T04:38:44.710Z,14.86
2022-08-09T04:39:44.748Z,14.86
2022-08-09T04:40:44.691Z,14.86
2022-08-09T04:41:44.674Z,14.86
2022-08-09T04:42:44.660Z,14.83
2022-08-09T04:43:53.731Z,14.84
2022-08-09T04:44:49.279Z,14.83
2022-08-09T04:45:53.794Z,14.81
2022-08-09T04:46:59.580Z,14.81
2022-08-09T04:48:00.175Z,14.80
2022-08-09T04:48:50.364Z,14.81
2022-08-09T04:49:53.653Z,14.83
2022-08-09T04:50:45.582Z,14.83
2022-08-09T04:51:44.571Z,14.83
2022-08-09T04:52:44.564Z,14.83
2022-08-09T04:53:44.544Z,14.83
2022-08-09T04:54:44.544Z,14.84
2022-08-09T04:55:58.433Z,14.84
2022-08-09T04:56:45.516Z,14.83
2022-08-09T04:57:58.516Z,14.86
2022-08-09T04:58:45.495Z,14.89
2022-08-09T04:59:44.477Z,14.96
2022-08-09T05:00:44.566Z,14.99
2022-08-09T05:01:44.465Z,15.10
2022-08-09T05:02:51.797Z,15.16
2022-08-09T05:03:45.486Z,15.23
2022-08-09T05:04:44.435Z,15.29
2022-08-09T05:05:52.070Z,15.35
2022-08-09T05:06:45.417Z,15.39
2022-08-09T05:07:46.428Z,15.49
2022-08-09T05:08:47.764Z,15.54
2022-08-09T05:09:49.905Z,15.62
2022-08-09T05:10:45.401Z,15.65
2022-08-09T05:11:44.349Z,15.71
2022-08-09T05:12:44.349Z,15.76
2022-08-09T05:13:44.337Z,15.83
2022-08-09T05:14:44.332Z,15.87
2022-08-09T05:15:52.267Z,15.92
2022-08-09T05:16:59.287Z,15.93
2022-08-09T05:18:37.484Z,15.96
2022-08-09T05:18:55.523Z,15.96
2022-08-09T05:19:46.097Z,16.01
2022-08-09T05:20:44.270Z,16.07
2022-08-09T05:21:47.152Z,16.12
2022-08-09T05:23:53.574Z,16.21
2022-08-09T05:23:56.723Z,16.14
2022-08-09T05:24:45.215Z,16.24
2022-08-09T05:25:44.203Z,16.30
2022-08-09T05:26:46.098Z,16.33
2022-08-09T05:27:46.483Z,16.34
2022-08-09T05:28:44.174Z,16.38
2022-08-09T05:29:44.165Z,16.42
2022-08-09T05:30:47.920Z,16.48
2022-08-09T05:31:49.317Z,16.53
2022-08-09T05:32:45.125Z,16.58
2022-08-09T05:33:45.126Z,16.63
2022-08-09T05:34:45.754Z,16.67
2022-08-09T05:35:46.928Z,16.68
2022-08-09T05:36:47.056Z,16.73
2022-08-09T05:37:47.773Z,16.81
2022-08-09T05:38:46.136Z,16.82
2022-08-09T05:39:44.737Z,16.83
2022-08-09T05:40:46.547Z,16.86
2022-08-09T05:41:45.028Z,16.89
2022-08-09T05:42:44.029Z,16.91
2022-08-09T05:43:45.216Z,16.93
2022-08-09T05:44:45.007Z,16.93
2022-08-09T05:45:55.825Z,16.96
2022-08-09T05:46:44.981Z,17.00
2022-08-09T05:47:51.711Z,17.01
2022-08-09T05:48:44.962Z,17.06
2022-08-09T05:50:32.285Z,17.06
2022-08-09T05:50:51.013Z,17.08
2022-08-09T05:51:46.458Z,17.15
2022-08-09T05:52:44.381Z,17.19
2022-08-09T05:53:56.868Z,17.22
2022-08-09T05:54:44.894Z,17.26
2022-08-09T05:55:43.873Z,17.30
2022-08-09T05:56:54.662Z,17.33
2022-08-09T05:57:50.792Z,17.36
2022-08-09T05:58:44.853Z,17.38
2022-08-09T05:59:43.835Z,17.43
2022-08-09T06:00:43.834Z,17.46
2022-08-09T06:01:43.835Z,17.49
2022-08-09T06:02:46.627Z,17.52
2022-08-09T06:03:58.357Z,17.55
2022-08-09T06:04:46.026Z,17.56
2022-08-09T06:05:57.037Z,17.62
2022-08-09T06:06:49.955Z,17.62
2022-08-09T06:07:44.755Z,17.64
2022-08-09T06:08:44.768Z,17.71
2022-08-09T06:10:02.408Z,17.74
2022-08-09T06:10:44.720Z,17.78
2022-08-09T06:11:57.191Z,17.86
2022-08-09T06:12:44.705Z,17.89
2022-08-09T06:13:44.690Z,17.92
2022-08-09T06:14:43.681Z,17.92
2022-08-09T06:15:43.661Z,17.96
2022-08-09T06:16:43.661Z,18.02
2022-08-09T06:17:44.655Z,18.00
2022-08-09T06:18:43.639Z,18.03
2022-08-09T06:19:43.622Z,18.07
2022-08-09T06:20:43.628Z,18.07
2022-08-09T06:21:50.548Z,18.10
2022-08-09T06:22:45.747Z,18.12
2022-08-09T06:23:57.492Z,18.14
2022-08-09T06:24:44.572Z,18.18
2022-08-09T06:25:43.554Z,18.21
2022-08-09T06:26:43.658Z,18.25
2022-08-09T06:27:51.423Z,18.32
2022-08-09T06:28:44.533Z,18.33
2022-08-09T06:29:47.693Z,18.33
2022-08-09T06:30:44.525Z,18.35
2022-08-09T06:32:08.557Z,18.37
2022-08-09T06:32:58.927Z,18.41
2022-08-09T06:33:48.653Z,18.42
2022-08-09T06:34:44.532Z,18.44
2022-08-09T06:35:57.726Z,18.51
2022-08-09T06:36:44.457Z,18.51
2022-08-09T06:37:52.859Z,18.54
2022-08-09T06:38:50.041Z,18.60
2022-08-09T06:39:57.783Z,18.63
2022-08-09T06:40:44.465Z,18.66
2022-08-09T06:42:08.896Z,18.67
2022-08-09T06:42:45.081Z,18.69
2022-08-09T06:43:43.359Z,18.72
2022-08-09T06:44:43.482Z,18.75
2022-08-09T06:46:07.662Z,18.80
2022-08-09T06:46:44.340Z,18.84
2022-08-09T06:47:43.323Z,18.85
2022-08-09T06:48:43.319Z,18.85
2022-08-09T06:50:11.418Z,18.88
2022-08-09T06:50:44.292Z,18.90
2022-08-09T06:51:43.272Z,18.88
2022-08-09T06:52:43.283Z,18.92
2022-08-09T06:53:43.252Z,18.95
2022-08-09T06:54:43.243Z,18.99
2022-08-09T06:55:43.233Z,19.04
2022-08-09T06:56:45.541Z,19.06
2022-08-09T06:58:03.608Z,19.10
2022-08-09T07:00:48.641Z,19.14
2022-08-09T07:00:48.647Z,19.14
2022-08-09T07:00:52.320Z,19.14
2022-08-09T07:01:54.414Z,19.14
2022-08-09T07:02:44.205Z,19.14
2022-08-09T07:03:53.093Z,19.19
2022-08-09T07:04:44.147Z,19.22
2022-08-09T07:05:53.753Z,19.25
2022-08-09T07:06:44.127Z,19.29
2022-08-09T07:07:59.727Z,19.32
2022-08-09T07:08:44.098Z,19.33
2022-08-09T07:09:55.841Z,19.37
2022-08-09T07:10:44.068Z,19.39
2022-08-09T07:11:45.482Z,19.39
2022-08-09T07:12:44.330Z,19.41
2022-08-09T07:14:04.126Z,19.46
2022-08-09T07:14:44.030Z,19.48
2022-08-09T07:15:54.103Z,19.54
2022-08-09T07:16:48.133Z,19.58
2022-08-09T07:17:55.976Z,19.62
2022-08-09T07:18:43.992Z,19.63
2022-08-09T07:19:42.995Z,19.68
2022-08-09T07:20:44.585Z,19.74
2022-08-09T07:21:55.491Z,19.78
2022-08-09T07:22:49.624Z,19.80
2022-08-09T07:23:56.582Z,19.88
2022-08-09T07:24:44.278Z,19.95
2022-08-09T07:25:43.523Z,19.99
2022-08-09T07:26:42.905Z,20.02
2022-08-09T07:27:53.170Z,20.08
2022-08-09T07:29:01.356Z,20.11
2022-08-09T07:29:43.856Z,20.17
2022-08-09T07:30:42.858Z,20.21
2022-08-09T07:31:45.870Z,20.29
2022-08-09T07:32:43.827Z,20.38
2022-08-09T07:33:52.873Z,20.43
2022-08-09T07:34:43.828Z,20.52
2022-08-09T07:35:54.057Z,20.61
2022-08-09T07:36:43.790Z,20.70
2022-08-09T07:37:44.391Z,20.76
2022-08-09T07:38:45.275Z,20.82
2022-08-09T07:39:43.877Z,20.89
2022-08-09T07:41:08.303Z,20.91
2022-08-09T07:41:43.727Z,20.95
2022-08-09T07:42:42.729Z,20.99
2022-08-09T07:43:50.059Z,21.01
2022-08-09T07:44:53.180Z,21.06
2022-08-09T07:45:43.683Z,21.13
2022-08-09T07:46:43.048Z,21.19
2022-08-09T07:48:00.502Z,21.29
2022-08-09T07:48:43.660Z,21.38
2022-08-09T07:50:05.132Z,21.42
2022-08-09T07:50:52.750Z,21.44
2022-08-09T07:52:03.751Z,21.50
2022-08-09T07:52:43.626Z,21.56
2022-08-09T07:54:05.983Z,21.64
2022-08-09T07:54:43.602Z,21.64
2022-08-09T07:56:02.948Z,21.68
2022-08-09T07:56:44.862Z,21.72
2022-08-09T07:57:47.027Z,21.80
2022-08-09T07:58:42.556Z,21.90
2022-08-09T07:59:52.254Z,22.00
2022-08-09T08:00:55.736Z,22.10
2022-08-09T08:01:43.602Z,22.20
2022-08-09T08:02:43.667Z,22.30
2022-08-09T08:03:42.593Z,22.40
2022-08-09T08:04:42.487Z,22.47
2022-08-09T08:05:57.531Z,22.57
2022-08-09T08:06:55.516Z,22.64
2022-08-09T08:09:01.418Z,22.77
2022-08-09T08:09:03.427Z,22.82
2022-08-09T08:09:51.763Z,22.90
2022-08-09T08:11:03.100Z,22.98
2022-08-09T08:12:11.273Z,23.00
2022-08-09T08:12:45.365Z,23.05
2022-08-09T08:13:55.926Z,23.15
2022-08-09T08:14:43.382Z,23.23
2022-08-09T08:15:42.363Z,23.28
2022-08-09T08:17:00.576Z,23.38
2022-08-09T08:17:55.268Z,23.43
2022-08-09T08:18:43.344Z,23.51
2022-08-09T08:19:42.323Z,23.57
2022-08-09T08:20:42.860Z,23.63
2022-08-09T08:21:42.296Z,23.69
2022-08-09T08:22:43.296Z,23.72
2022-08-09T08:23:42.276Z,23.80
2022-08-09T08:24:48.649Z,23.90
2022-08-09T08:25:45.945Z,23.94
2022-08-09T08:26:55.769Z,23.94
2022-08-09T08:27:43.382Z,23.95
2022-08-09T08:28:42.231Z,23.98
2022-08-09T08:29:45.223Z,24.00
2022-08-09T08:30:43.209Z,23.97
2022-08-09T08:32:04.147Z,24.08
2022-08-09T08:32:53.760Z,24.10
2022-08-09T08:33:53.058Z,24.10
2022-08-09T08:34:43.170Z,24.12
2022-08-09T08:35:58.929Z,24.08
2022-08-09T08:36:43.141Z,24.09
2022-08-09T08:38:01.956Z,24.16
2022-08-09T08:38:43.132Z,24.24
2022-08-09T08:39:43.632Z,24.28
2022-08-09T08:40:42.113Z,24.35
2022-08-09T08:41:51.758Z,24.31
2022-08-09T08:42:43.605Z,24.32
2022-08-09T08:43:42.069Z,24.30
2022-08-09T08:44:42.062Z,24.34
2022-08-09T08:45:51.359Z,24.39
2022-08-09T08:46:59.550Z,24.37
2022-08-09T08:47:44.929Z,24.46
2022-08-09T08:48:42.957Z,24.57
2022-08-09T08:49:46.754Z,24.62
2022-08-09T08:50:45.325Z,24.73
2022-08-09T08:52:00.149Z,24.78
2022-08-09T08:53:00.532Z,24.71
2022-08-09T08:54:03.515Z,24.67
2022-08-09T08:54:42.987Z,24.62
2022-08-09T08:55:41.946Z,24.62
2022-08-09T08:56:41.928Z,24.73
2022-08-09T08:57:41.926Z,24.69
2022-08-09T08:58:46.478Z,24.76
2022-08-09T08:59:44.502Z,24.83
2022-08-09T09:00:41.882Z,24.90
2022-08-09T09:01:52.052Z,24.93
2022-08-09T09:02:42.918Z,25.03
2022-08-09T09:03:41.926Z,25.03
2022-08-09T09:04:52.601Z,25.05
2022-08-09T09:06:00.347Z,25.13
2022-08-09T09:06:42.814Z,25.13
2022-08-09T09:07:42.508Z,25.13
2022-08-09T09:08:42.390Z,25.08
2022-08-09T09:09:58.008Z,25.05
2022-08-09T09:10:42.877Z,25.05
2022-08-09T09:11:41.769Z,25.06
2022-08-09T09:12:41.756Z,25.10
2022-08-09T09:13:57.102Z,25.18
2022-08-09T09:14:42.735Z,25.33
2022-08-09T09:15:42.569Z,25.46
2022-08-09T09:16:42.723Z,25.58
2022-08-09T09:17:51.671Z,25.67
2022-08-09T09:18:48.029Z,25.72
2022-08-09T09:19:42.970Z,25.77
2022-08-09T09:20:41.667Z,25.76
2022-08-09T09:21:41.660Z,25.70
2022-08-09T09:22:41.748Z,25.67
2022-08-09T09:23:41.832Z,25.73
2022-08-09T09:24:43.400Z,25.75
2022-08-09T09:26:03.209Z,25.80
2022-08-09T09:26:44.720Z,25.82
2022-08-09T09:28:05.804Z,25.88
2022-08-09T09:29:04.543Z,25.95
2022-08-09T09:30:11.391Z,25.91
2022-08-09T09:30:42.730Z,25.92
2022-08-09T09:32:01.635Z,25.92
2022-08-09T09:32:42.547Z,26.01
2022-08-09T09:33:44.727Z,26.02
2022-08-09T09:34:41.533Z,25.95
2022-08-09T09:35:46.205Z,25.92
2022-08-09T09:36:50.958Z,25.99
2022-08-09T09:37:42.497Z,26.06
2022-08-09T09:38:41.481Z,26.17
2022-08-09T09:39:54.693Z,26.13
2022-08-09T09:40:42.468Z,26.10
2022-08-09T09:41:49.176Z,26.01
2022-08-09T09:42:43.007Z,26.02
2022-08-09T09:44:10.706Z,26.10
2022-08-09T09:44:42.413Z,26.18
2022-08-09T09:45:57.042Z,26.17
2022-08-09T09:46:46.199Z,26.18
2022-08-09T09:47:56.178Z,26.25
2022-08-09T09:48:42.373Z,26.30
2022-08-09T09:49:56.135Z,26.29
2022-08-09T09:50:49.741Z,26.32
2022-08-09T09:51:42.343Z,26.23
2022-08-09T09:52:42.333Z,26.13
2022-08-09T09:53:57.500Z,26.02
2022-08-09T09:54:42.311Z,25.92
2022-08-09T09:55:42.460Z,25.95
2022-08-09T09:58:00.259Z,25.92
2022-08-09T09:58:02.278Z,26.05
2022-08-09T09:58:42.267Z,26.23
2022-08-09T09:59:41.267Z,26.36
2022-08-09T10:00:41.245Z,26.48
2022-08-09T10:01:42.255Z,26.51
2022-08-09T10:02:41.235Z,26.60
2022-08-09T10:03:42.818Z,26.70
2022-08-09T10:04:41.207Z,26.84
2022-08-09T10:06:03.777Z,26.91
2022-08-09T10:06:42.784Z,26.97
2022-08-09T10:08:01.022Z,27.04
2022-08-09T10:08:42.694Z,26.97
2022-08-09T10:09:45.880Z,26.94
2022-08-09T10:10:42.142Z,26.89
2022-08-09T10:11:53.724Z,26.87
2022-08-09T10:12:43.895Z,26.69
2022-08-09T10:13:45.297Z,26.66
2022-08-09T10:14:43.961Z,26.54
2022-08-09T10:16:09.175Z,26.48
2022-08-09T10:16:57.076Z,26.50
2022-08-09T10:17:55.929Z,26.51
2022-08-09T10:18:42.064Z,26.57
2022-08-09T10:19:42.053Z,26.73
2022-08-09T10:20:44.873Z,26.92
2022-08-09T10:21:41.025Z,27.12
2022-08-09T10:22:41.278Z,27.17
2022-08-09T10:23:41.054Z,27.02
2022-08-09T10:24:41.026Z,27.07
2022-08-09T10:26:07.111Z,27.13
2022-08-09T10:26:42.076Z,27.24
2022-08-09T10:27:56.015Z,27.28
2022-08-09T10:28:43.355Z,27.36
2022-08-09T10:30:28.401Z,27.41
2022-08-09T10:32:21.029Z,27.49
2022-08-09T10:32:42.674Z,27.60
2022-08-09T10:34:10.382Z,27.67
2022-08-09T10:34:41.879Z,27.77
2022-08-09T10:35:40.884Z,27.82
2022-08-09T10:36:42.253Z,27.88
2022-08-09T10:37:42.082Z,27.84
2022-08-09T10:38:57.132Z,27.97
2022-08-09T10:39:49.226Z,28.00
2022-08-09T10:40:44.684Z,28.06
2022-08-09T10:41:42.154Z,28.09
2022-08-09T10:42:40.818Z,28.04
2022-08-09T10:43:47.081Z,27.92
2022-08-09T10:44:41.775Z,27.88
2022-08-09T10:45:49.289Z,27.94
2022-08-09T10:46:54.779Z,28.07
2022-08-09T10:48:26.518Z,28.22
2022-08-09T10:48:41.736Z,28.30
2022-08-09T10:49:50.117Z,28.29
2022-08-09T10:50:41.717Z,28.21
2022-08-09T10:51:41.463Z,28.09
2022-08-09T10:52:43.032Z,28.00
2022-08-09T10:53:46.969Z,27.94
2022-08-09T10:54:41.677Z,27.60
2022-08-09T10:55:57.690Z,27.49
2022-08-09T10:56:41.649Z,27.43
2022-08-09T10:57:41.809Z,27.49
2022-08-09T10:58:42.838Z,27.47
2022-08-09T10:59:43.061Z,27.65
2022-08-09T11:00:56.874Z,27.75
2022-08-09T11:03:13.560Z,27.94
2022-08-09T11:03:14.618Z,27.81
2022-08-09T11:03:49.506Z,27.96
2022-08-09T11:04:55.643Z,28.09
2022-08-09T11:06:00.436Z,28.12
2022-08-09T11:06:44.714Z,28.24
2022-08-09T11:07:57.586Z,28.14
2022-08-09T11:08:43.634Z,28.02
2022-08-09T11:09:47.425Z,27.96
2022-08-09T11:10:53.210Z,27.72
2022-08-09T11:11:43.615Z,27.62
2022-08-09T11:12:41.504Z,27.50
2022-08-09T11:13:50.941Z,27.37
2022-08-09T11:14:41.467Z,27.24
2022-08-09T11:15:51.241Z,27.27
2022-08-09T11:16:41.562Z,27.31
2022-08-09T11:17:41.953Z,27.29
2022-08-09T11:18:40.440Z,27.25
2022-08-09T11:20:10.044Z,27.22
2022-08-09T11:20:41.396Z,27.28
2022-08-09T11:21:41.291Z,27.37
2022-08-09T11:22:40.371Z,27.46
2022-08-09T11:23:40.367Z,27.47
2022-08-09T11:24:40.361Z,27.25
2022-08-09T11:25:46.043Z,27.17
2022-08-09T11:26:47.425Z,27.37
2022-08-09T11:28:02.922Z,27.55
2022-08-09T11:28:56.119Z,27.70
2022-08-09T11:30:02.343Z,27.97
2022-08-09T11:30:47.925Z,28.12
2022-08-09T11:31:43.552Z,28.31
2022-08-09T11:32:41.276Z,28.41
2022-08-09T11:33:40.258Z,28.66
2022-08-09T11:34:40.246Z,28.73
2022-08-09T11:35:50.404Z,28.88
2022-08-09T11:36:41.218Z,29.08
2022-08-09T11:37:40.851Z,29.02
2022-08-09T11:38:41.294Z,28.64
2022-08-09T11:39:40.239Z,28.61
2022-08-09T11:40:40.179Z,28.67
2022-08-09T11:41:40.679Z,28.83
2022-08-09T11:42:40.290Z,28.92
2022-08-09T11:43:40.159Z,28.77
2022-08-09T11:44:40.132Z,28.54
2022-08-09T11:45:43.106Z,28.56
2022-08-09T11:46:40.112Z,28.66
2022-08-09T11:47:40.112Z,28.76
2022-08-09T11:48:40.193Z,28.92
2022-08-09T11:49:42.719Z,29.18
2022-08-09T11:50:55.431Z,29.21
2022-08-09T11:53:00.729Z,28.59
2022-08-09T11:53:04.136Z,28.56
2022-08-09T11:54:00.706Z,28.51
2022-08-09T11:54:41.033Z,28.64
2022-08-09T11:55:52.708Z,28.88
2022-08-09T11:56:42.530Z,28.89
2022-08-09T11:58:00.166Z,28.95
2022-08-09T11:58:41.008Z,28.96
2022-08-09T11:59:41.013Z,29.06
2022-08-09T12:00:39.989Z,29.28
2022-08-09T12:02:34.542Z,29.34
2022-08-09T12:02:41.129Z,29.31
2022-08-09T12:03:55.290Z,29.21
2022-08-09T12:04:41.035Z,29.24
2022-08-09T12:05:47.110Z,29.24
2022-08-09T12:06:40.901Z,29.28
2022-08-09T12:07:42.107Z,29.43
2022-08-09T12:08:39.882Z,29.37
2022-08-09T12:09:39.882Z,29.36
2022-08-09T12:10:40.882Z,29.27
2022-08-09T12:12:02.415Z,29.28
2022-08-09T12:12:41.094Z,29.39
2022-08-09T12:14:10.614Z,29.64
2022-08-09T12:15:07.590Z,29.74
2022-08-09T12:15:49.225Z,29.65
2022-08-09T12:16:40.816Z,29.67
2022-08-09T12:17:44.610Z,29.79
2022-08-09T12:18:40.785Z,29.86
2022-08-09T12:19:40.124Z,30.02
2022-08-09T12:20:39.757Z,29.98
2022-08-09T12:21:50.708Z,29.74
2022-08-09T12:22:40.750Z,29.61
2022-08-09T12:23:58.117Z,29.51
2022-08-09T12:24:40.727Z,29.46
2022-08-09T12:25:50.068Z,29.31
2022-08-09T12:26:40.700Z,29.45
2022-08-09T12:29:12.576Z,29.43
2022-08-09T12:29:15.616Z,29.34
2022-08-09T12:29:44.470Z,29.31
2022-08-09T12:30:40.861Z,29.33
2022-08-09T12:31:59.121Z,29.21
2022-08-09T12:32:41.040Z,29.15
2022-08-09T12:33:58.744Z,29.09
2022-08-09T12:34:40.615Z,29.23
2022-08-09T12:35:40.912Z,29.41
2022-08-09T12:36:39.594Z,29.42
2022-08-09T12:37:50.351Z,29.31
2022-08-09T12:38:40.574Z,29.30
2022-08-09T12:39:40.106Z,29.28
2022-08-09T12:40:39.556Z,29.19
2022-08-09T12:41:40.408Z,29.23
2022-08-09T12:42:39.540Z,29.46
2022-08-09T12:44:06.148Z,29.76
2022-08-09T12:44:41.926Z,29.92
2022-08-09T12:45:40.561Z,29.64
2022-08-09T12:46:39.502Z,29.49
2022-08-09T12:47:41.251Z,29.45
2022-08-09T12:48:40.480Z,29.41
2022-08-09T12:49:39.516Z,29.61
2022-08-09T12:50:41.239Z,29.86
2022-08-09T12:52:01.502Z,29.89
2022-08-09T12:52:58.328Z,29.71
2022-08-09T12:53:41.028Z,29.53